North Norwich, New York
Current Conditions -  °F | °C
As of 4:55 AM on Friday 28 Nov 2014 (Local Time) from KN03 Reporting Station
Light Snow Light Snow  
Wind Chill: 27°   Ceiling: 1500
Heat Index: 27°   Visibility: 4mi
Dew Point: 25°   Wind: 3mph
Humidity: 93%   Direction: 280°W
Pressure: 30.1"   Gusts: NA
Location:  42.62°N, 75.53°W
Report Text: KN03 280955Z AUTO 28003KT 4SM -SN BKN015 BKN021 OVC030 M03/M04 A3010 RMK AO2
Loading
Personal Weather Stations






























Interactive Weather Map New forecast layout! Learn more

10-Day Weather Forecast

Advertisements
Track Severe Weather on mobile